createdAt,value
2022-09-21T00:00:40.447Z,6.60
2022-09-21T00:03:07.214Z,6.98
2022-09-21T00:05:34.217Z,7.34
2022-09-21T00:08:04.596Z,7.43
2022-09-21T00:10:31.298Z,6.57
2022-09-21T00:12:58.138Z,6.98
2022-09-21T00:15:24.963Z,6.98
2022-09-21T00:17:54.932Z,7.00
2022-09-21T00:20:21.792Z,7.11
2022-09-21T00:22:48.517Z,7.25
2022-09-21T00:25:15.276Z,6.94
2022-09-21T00:27:41.966Z,7.02
2022-09-21T00:30:09.237Z,7.20
2022-09-21T00:32:36.787Z,6.13
2022-09-21T00:35:03.982Z,6.68
2022-09-21T00:37:30.561Z,7.29
2022-09-21T00:39:57.170Z,6.97
2022-09-21T00:42:26.343Z,7.20
2022-09-21T00:44:52.936Z,7.26
2022-09-21T00:47:33.339Z,7.39
2022-09-21T00:50:00.702Z,6.36
2022-09-21T00:52:27.293Z,7.07
2022-09-21T00:55:00.413Z,7.06
2022-09-21T00:57:27.805Z,7.22
2022-09-21T00:59:55.980Z,7.49
2022-09-21T01:02:22.779Z,6.50
2022-09-21T01:04:49.385Z,6.74
2022-09-21T01:07:18.523Z,7.15
2022-09-21T01:09:47.012Z,7.21
2022-09-21T01:12:41.505Z,7.51
2022-09-21T01:15:40.165Z,7.40
2022-09-21T01:18:21.270Z,7.24
2022-09-21T01:21:04.105Z,7.09
2022-09-21T01:23:46.001Z,7.50
2022-09-21T01:26:15.374Z,7.52
2022-09-21T01:29:11.978Z,7.53
2022-09-21T01:31:44.633Z,7.08
2022-09-21T01:34:43.058Z,7.33
2022-09-21T01:37:12.894Z,6.87
2022-09-21T01:39:39.474Z,7.11
2022-09-21T01:42:06.549Z,6.00
2022-09-21T01:44:33.673Z,6.93
2022-09-21T01:47:01.715Z,6.97
2022-09-21T01:49:31.781Z,7.32
2022-09-21T01:52:01.413Z,7.37
2022-09-21T01:54:30.749Z,7.24
2022-09-21T01:57:32.525Z,7.34
2022-09-21T02:00:00.095Z,7.32
2022-09-21T02:02:44.407Z,7.26
2022-09-21T02:05:11.440Z,7.31
2022-09-21T02:07:38.720Z,7.36
2022-09-21T02:10:08.277Z,6.22
2022-09-21T02:12:34.907Z,7.14
2022-09-21T02:15:01.804Z,7.26
2022-09-21T02:17:41.210Z,7.46
2022-09-21T02:20:36.604Z,6.73
2022-09-21T02:23:12.210Z,6.81
2022-09-21T02:25:51.292Z,7.42
2022-09-21T02:28:20.787Z,7.54
2022-09-21T02:30:53.701Z,7.54
2022-09-21T02:33:24.898Z,7.16
2022-09-21T02:35:55.693Z,7.36
2022-09-21T02:38:26.625Z,6.38
2022-09-21T02:40:56.749Z,7.19
2022-09-21T02:44:00.497Z,7.54
2022-09-21T02:46:31.967Z,7.52
2022-09-21T02:49:15.237Z,7.29
2022-09-21T02:51:51.362Z,7.00
2022-09-21T02:54:20.162Z,6.90
2022-09-21T02:56:48.842Z,7.00
2022-09-21T02:59:16.650Z,6.43
2022-09-21T03:01:43.348Z,6.86
2022-09-21T03:04:10.715Z,6.86
2022-09-21T03:06:37.274Z,6.72
2022-09-21T03:09:03.963Z,6.74
2022-09-21T03:11:30.612Z,7.32
2022-09-21T03:13:57.303Z,6.92
2022-09-21T03:16:24.650Z,7.19
2022-09-21T03:18:51.423Z,6.28
2022-09-21T03:21:18.197Z,7.16
2022-09-21T03:23:44.760Z,5.54
2022-09-21T03:26:11.339Z,6.56
2022-09-21T03:28:37.967Z,6.80
2022-09-21T03:31:06.021Z,6.92
2022-09-21T03:33:32.767Z,6.63
2022-09-21T03:35:59.485Z,6.83
2022-09-21T03:38:26.934Z,6.84
2022-09-21T03:40:57.859Z,6.68
2022-09-21T03:43:24.512Z,6.26
2022-09-21T03:45:51.310Z,6.47
2022-09-21T03:48:17.912Z,6.57
2022-09-21T03:50:44.556Z,5.38
2022-09-21T03:53:18.333Z,7.05
2022-09-21T03:55:44.970Z,7.24
2022-09-21T03:58:11.523Z,7.29
2022-09-21T04:00:39.229Z,7.22
2022-09-21T04:03:05.781Z,6.92
2022-09-21T04:05:32.506Z,7.43
2022-09-21T04:08:02.066Z,6.49
2022-09-21T04:10:32.845Z,7.55
2022-09-21T04:13:01.325Z,7.08
2022-09-21T04:15:28.115Z,6.91
2022-09-21T04:17:54.782Z,7.07
2022-09-21T04:20:21.483Z,7.54
2022-09-21T04:22:48.113Z,7.13
2022-09-21T04:25:15.037Z,7.08
2022-09-21T04:27:41.709Z,7.40
2022-09-21T04:30:09.107Z,7.25
2022-09-21T04:32:35.672Z,7.22
2022-09-21T04:35:02.213Z,7.51
2022-09-21T04:37:28.773Z,7.30
2022-09-21T04:39:55.931Z,7.16
2022-09-21T04:42:23.341Z,6.67
2022-09-21T04:44:49.929Z,5.69
2022-09-21T04:47:16.497Z,7.27
2022-09-21T04:49:43.097Z,7.18
2022-09-21T04:52:09.657Z,7.54
2022-09-21T04:54:36.221Z,7.41
2022-09-21T04:57:02.855Z,7.08
2022-09-21T04:59:29.423Z,7.47
2022-09-21T05:01:56.069Z,7.41
2022-09-21T05:04:22.619Z,7.05
2022-09-21T05:06:49.219Z,7.17
2022-09-21T05:09:34.878Z,6.73
2022-09-21T05:12:03.051Z,7.23
2022-09-21T05:14:29.768Z,7.77
2022-09-21T05:16:56.392Z,7.33
2022-09-21T05:19:23.811Z,7.56
2022-09-21T05:21:50.374Z,7.66
2022-09-21T05:24:16.989Z,5.95
2022-09-21T05:26:43.602Z,7.34
2022-09-21T05:29:10.391Z,6.34
2022-09-21T05:31:48.825Z,8.01
2022-09-21T05:34:30.169Z,7.88
2022-09-21T05:37:21.929Z,7.87
2022-09-21T05:39:48.734Z,7.72
2022-09-21T05:42:15.505Z,6.95
2022-09-21T05:44:42.453Z,7.61
2022-09-21T05:47:20.516Z,8.12
2022-09-21T05:50:02.434Z,7.32
2022-09-21T05:52:39.368Z,8.13
2022-09-21T05:55:35.191Z,7.81
2022-09-21T05:58:18.258Z,8.15
2022-09-21T06:01:09.377Z,8.13
2022-09-21T06:03:36.364Z,7.75
2022-09-21T06:06:03.079Z,7.95
2022-09-21T06:08:29.671Z,7.86
2022-09-21T06:10:56.398Z,7.67
2022-09-21T06:13:22.947Z,7.39
2022-09-21T06:15:49.552Z,6.25
2022-09-21T06:18:18.149Z,8.23
2022-09-21T06:20:45.248Z,8.58
2022-09-21T06:23:12.746Z,8.22
2022-09-21T06:25:39.385Z,8.22
2022-09-21T06:28:07.116Z,8.66
2022-09-21T06:30:34.823Z,8.38
2022-09-21T06:33:01.978Z,8.38
2022-09-21T06:35:29.099Z,8.35
2022-09-21T06:38:02.888Z,8.46
2022-09-21T06:40:29.711Z,8.65
2022-09-21T06:43:00.074Z,7.75
2022-09-21T06:45:27.185Z,8.48
2022-09-21T06:47:53.727Z,8.28
2022-09-21T06:50:20.329Z,8.59
2022-09-21T06:52:46.972Z,8.28
2022-09-21T06:55:13.766Z,8.42
2022-09-21T06:57:40.596Z,8.58
2022-09-21T07:00:09.190Z,8.58
2022-09-21T07:02:35.790Z,8.59
2022-09-21T07:05:02.469Z,8.81
2022-09-21T07:07:32.059Z,8.52
2022-09-21T07:10:07.422Z,8.23
2022-09-21T07:12:35.387Z,8.51
2022-09-21T07:15:08.161Z,8.78
2022-09-21T07:17:38.140Z,7.84
2022-09-21T07:20:06.890Z,8.90
2022-09-21T07:22:33.567Z,8.80
2022-09-21T07:25:00.188Z,8.79
2022-09-21T07:27:27.686Z,7.93
2022-09-21T07:29:54.227Z,8.96
2022-09-21T07:32:21.215Z,9.00
2022-09-21T07:34:48.399Z,8.26
2022-09-21T07:37:15.254Z,8.90
2022-09-21T07:39:41.893Z,7.89
2022-09-21T07:42:08.473Z,8.63
2022-09-21T07:44:35.065Z,8.94
2022-09-21T07:47:03.407Z,8.89
2022-09-21T07:49:30.064Z,8.79
2022-09-21T07:52:01.419Z,9.61
2022-09-21T07:54:30.377Z,9.32
2022-09-21T07:57:15.449Z,8.67
2022-09-21T07:59:42.029Z,9.83
2022-09-21T08:02:08.876Z,9.56
2022-09-21T08:04:35.662Z,9.52
2022-09-21T08:07:02.400Z,9.50
2022-09-21T08:09:28.986Z,9.52
2022-09-21T08:11:56.072Z,8.98
2022-09-21T08:14:26.255Z,8.49
2022-09-21T08:16:53.465Z,10.19
2022-09-21T08:19:20.616Z,9.81
2022-09-21T08:21:56.259Z,10.00
2022-09-21T08:24:25.583Z,9.42
2022-09-21T08:26:52.875Z,10.43
2022-09-21T08:29:19.700Z,10.45
2022-09-21T08:31:46.905Z,10.82
2022-09-21T08:34:14.462Z,10.63
2022-09-21T08:36:41.189Z,10.94
2022-09-21T08:39:08.396Z,11.03
2022-09-21T08:41:53.136Z,11.67
2022-09-21T08:44:25.022Z,11.40
2022-09-21T08:47:13.944Z,11.94
2022-09-21T08:49:41.268Z,11.96
2022-09-21T08:52:16.248Z,11.50
2022-09-21T08:54:57.129Z,11.74
2022-09-21T08:57:29.522Z,11.43
2022-09-21T08:59:56.209Z,11.08
2022-09-21T09:03:00.911Z,11.45
2022-09-21T09:05:55.480Z,11.05
2022-09-21T09:08:21.965Z,11.19
2022-09-21T09:10:55.428Z,11.06
2022-09-21T09:13:43.766Z,10.87
2022-09-21T09:16:39.629Z,10.63
2022-09-21T09:19:18.052Z,10.54
2022-09-21T09:21:44.642Z,9.79
2022-09-21T09:24:15.834Z,10.05
2022-09-21T09:26:52.836Z,10.28
2022-09-21T09:29:26.618Z,9.76
2022-09-21T09:31:54.854Z,9.01
2022-09-21T09:34:28.965Z,10.42
2022-09-21T09:37:00.480Z,10.36
2022-09-21T09:39:29.151Z,9.73
2022-09-21T09:42:26.648Z,11.01
2022-09-21T09:45:05.485Z,10.37
2022-09-21T09:47:44.534Z,11.21
2022-09-21T09:50:13.342Z,11.07
2022-09-21T09:52:40.339Z,11.06
2022-09-21T09:55:21.988Z,11.00
2022-09-21T09:57:49.134Z,10.35
2022-09-21T10:00:17.903Z,10.76
2022-09-21T10:02:56.438Z,10.63
2022-09-21T10:05:24.045Z,10.71
2022-09-21T10:07:50.824Z,11.15
2022-09-21T10:10:29.668Z,11.51
2022-09-21T10:13:35.070Z,11.03
2022-09-21T10:16:12.637Z,11.12
2022-09-21T10:18:46.361Z,11.79
2022-09-21T10:21:27.102Z,11.53
2022-09-21T10:24:21.816Z,11.54
2022-09-21T10:26:50.527Z,11.53
2022-09-21T10:29:23.048Z,12.28
2022-09-21T10:31:56.832Z,12.47
2022-09-21T10:34:23.433Z,11.55
2022-09-21T10:36:52.037Z,12.02
2022-09-21T10:39:38.804Z,12.17
2022-09-21T10:42:16.391Z,11.33
2022-09-21T10:44:44.834Z,11.84
2022-09-21T10:47:40.451Z,11.73
2022-09-21T10:50:43.807Z,11.43
2022-09-21T10:53:10.336Z,11.83
2022-09-21T10:55:44.082Z,11.47
2022-09-21T10:58:19.552Z,11.86
2022-09-21T11:00:51.869Z,11.40
2022-09-21T11:03:30.550Z,12.31
2022-09-21T11:05:59.947Z,11.97
2022-09-21T11:08:41.364Z,12.19
2022-09-21T11:11:36.465Z,12.72
2022-09-21T11:14:21.301Z,12.86
2022-09-21T11:16:56.790Z,12.93
2022-09-21T11:19:33.842Z,12.76
2022-09-21T11:22:19.071Z,12.81
2022-09-21T11:24:52.195Z,12.16
2022-09-21T11:27:32.218Z,12.33
2022-09-21T11:30:03.215Z,12.10
2022-09-21T11:33:12.020Z,11.87
2022-09-21T11:35:58.195Z,11.74
2022-09-21T11:38:58.588Z,11.63
2022-09-21T11:41:44.172Z,11.66
2022-09-21T11:44:40.937Z,11.50
2022-09-21T11:47:36.966Z,11.62
2022-09-21T11:50:30.520Z,11.59
2022-09-21T11:53:54.274Z,11.52
2022-09-21T11:56:44.242Z,11.43
2022-09-21T11:59:26.664Z,11.36
2022-09-21T12:01:56.131Z,11.31
2022-09-21T12:04:31.613Z,11.27
2022-09-21T12:07:13.753Z,10.88
2022-09-21T12:09:47.900Z,11.16
2022-09-21T12:12:25.547Z,10.66
2022-09-21T12:15:11.420Z,10.90
2022-09-21T12:17:50.253Z,11.07
2022-09-21T12:20:35.463Z,10.91
2022-09-21T12:23:04.704Z,10.35
2022-09-21T12:25:37.416Z,10.62
2022-09-21T12:28:22.910Z,9.75
2022-09-21T12:30:53.905Z,10.18
2022-09-21T12:33:26.450Z,10.19
2022-09-21T12:36:14.903Z,10.19
2022-09-21T12:38:48.817Z,9.99
2022-09-21T12:41:55.647Z,10.01
2022-09-21T12:44:52.269Z,9.75
2022-09-21T12:47:31.099Z,10.02
2022-09-21T12:50:02.589Z,9.88
2022-09-21T12:52:29.216Z,9.66
2022-09-21T12:54:58.598Z,10.32
2022-09-21T12:58:14.146Z,10.51
2022-09-21T13:00:42.729Z,10.63
2022-09-21T13:03:38.043Z,10.61
2022-09-21T13:06:12.454Z,11.29
2022-09-21T13:08:41.045Z,11.50
2022-09-21T13:11:10.548Z,11.00
2022-09-21T13:13:44.783Z,11.41
2022-09-21T13:16:51.474Z,11.65
2022-09-21T13:19:23.061Z,11.88
2022-09-21T13:22:19.830Z,11.81
2022-09-21T13:25:15.425Z,11.28
2022-09-21T13:28:26.727Z,12.01
2022-09-21T13:31:13.785Z,11.94
2022-09-21T13:34:06.481Z,11.68
2022-09-21T13:36:35.367Z,11.40
2022-09-21T13:39:14.105Z,11.73
2022-09-21T13:42:01.850Z,11.58
2022-09-21T13:44:42.013Z,11.18
2022-09-21T13:47:09.378Z,10.62
2022-09-21T13:49:50.869Z,10.87
2022-09-21T13:52:17.462Z,11.25
2022-09-21T13:54:52.674Z,11.17
2022-09-21T13:57:19.440Z,11.34
2022-09-21T13:59:57.375Z,11.04
2022-09-21T14:02:30.570Z,11.09
2022-09-21T14:04:57.318Z,11.36
2022-09-21T14:07:24.346Z,11.15
2022-09-21T14:09:55.379Z,11.93
2022-09-21T14:12:25.200Z,11.76
2022-09-21T14:15:12.583Z,12.06
2022-09-21T14:17:42.801Z,11.80
2022-09-21T14:20:34.644Z,11.95
2022-09-21T14:23:19.311Z,12.12
2022-09-21T14:25:59.141Z,10.68
2022-09-21T14:28:35.417Z,11.24
2022-09-21T14:31:34.735Z,12.01
2022-09-21T14:34:03.077Z,11.21
2022-09-21T14:36:38.374Z,11.44
2022-09-21T14:39:05.820Z,11.47
2022-09-21T14:41:39.214Z,11.67
2022-09-21T14:44:05.874Z,11.18
2022-09-21T14:46:54.775Z,11.21
2022-09-21T14:49:40.301Z,11.21
2022-09-21T14:52:13.458Z,11.67
2022-09-21T14:55:35.235Z,11.51
2022-09-21T14:58:42.921Z,11.54
2022-09-21T15:01:20.594Z,11.41
2022-09-21T15:03:48.302Z,11.36
2022-09-21T15:07:02.264Z,11.31
2022-09-21T15:09:56.532Z,11.31
2022-09-21T15:12:51.979Z,11.30
2022-09-21T15:15:57.465Z,11.15
2022-09-21T15:18:25.757Z,11.09
2022-09-21T15:21:01.563Z,11.08
2022-09-21T15:23:30.041Z,10.61
2022-09-21T15:26:02.700Z,11.24
2022-09-21T15:28:57.904Z,11.31
2022-09-21T15:31:22.231Z,11.28
2022-09-21T15:33:48.946Z,11.48
2022-09-21T15:36:28.896Z,11.08
2022-09-21T15:38:59.726Z,11.06
2022-09-21T15:41:42.575Z,11.45
2022-09-21T15:44:15.022Z,10.94
2022-09-21T15:46:43.249Z,10.72
2022-09-21T15:49:15.349Z,10.79
2022-09-21T15:51:45.246Z,10.36
2022-09-21T15:54:22.402Z,10.58
2022-09-21T15:56:49.072Z,10.73
2022-09-21T15:59:20.827Z,11.18
2022-09-21T16:01:49.338Z,10.39
2022-09-21T16:04:23.579Z,10.00
2022-09-21T16:07:02.982Z,10.15
2022-09-21T16:09:37.289Z,11.02
2022-09-21T16:12:25.916Z,11.00
2022-09-21T16:14:57.963Z,10.69
2022-09-21T16:17:28.659Z,9.41
2022-09-21T16:19:55.121Z,10.73
2022-09-21T16:23:00.127Z,10.10
2022-09-21T16:25:30.133Z,9.92
2022-09-21T16:27:58.371Z,9.67
2022-09-21T16:30:53.254Z,10.01
2022-09-21T16:33:38.016Z,10.15
2022-09-21T16:36:33.904Z,9.99
2022-09-21T16:39:01.188Z,9.53
2022-09-21T16:41:40.304Z,9.37
2022-09-21T16:44:12.974Z,8.75
2022-09-21T16:46:43.100Z,8.84
2022-09-21T16:49:16.845Z,8.96
2022-09-21T16:51:43.404Z,8.55
2022-09-21T16:54:09.998Z,8.30
2022-09-21T16:56:36.634Z,8.19
2022-09-21T16:59:10.546Z,8.52
2022-09-21T17:01:37.299Z,8.31
2022-09-21T17:04:04.325Z,8.25
2022-09-21T17:06:30.975Z,7.72
2022-09-21T17:08:57.704Z,8.57
2022-09-21T17:11:24.298Z,8.48
2022-09-21T17:13:50.997Z,8.68
2022-09-21T17:16:18.816Z,7.12
2022-09-21T17:18:46.099Z,8.07
2022-09-21T17:21:12.951Z,8.70
2022-09-21T17:23:40.160Z,8.60
2022-09-21T17:26:17.694Z,8.64
2022-09-21T17:28:44.509Z,8.76
2022-09-21T17:31:16.589Z,8.39
2022-09-21T17:33:43.661Z,8.32
2022-09-21T17:36:13.603Z,8.13
2022-09-21T17:38:40.503Z,8.46
2022-09-21T17:41:09.741Z,8.28
2022-09-21T17:43:38.242Z,9.01
2022-09-21T17:46:16.381Z,8.88
2022-09-21T17:48:43.183Z,8.26
2022-09-21T17:51:10.521Z,7.10
2022-09-21T17:53:37.503Z,8.41
2022-09-21T17:56:13.185Z,8.64
2022-09-21T17:58:44.897Z,8.71
2022-09-21T18:01:14.489Z,8.93
2022-09-21T18:03:42.623Z,8.22
2022-09-21T18:06:10.029Z,8.89
2022-09-21T18:08:37.843Z,6.99
2022-09-21T18:11:36.327Z,8.86
2022-09-21T18:14:37.874Z,7.81
2022-09-21T18:17:59.381Z,8.62
2022-09-21T18:20:51.616Z,8.49
2022-09-21T18:23:39.510Z,8.47
2022-09-21T18:26:10.235Z,8.80
2022-09-21T18:28:40.831Z,8.32
2022-09-21T18:31:30.098Z,8.37
2022-09-21T18:34:02.651Z,8.59
2022-09-21T18:36:37.275Z,8.56
2022-09-21T18:39:15.121Z,8.79
2022-09-21T18:41:46.969Z,8.65
2022-09-21T18:45:00.634Z,8.77
2022-09-21T18:47:38.733Z,8.08
2022-09-21T18:50:31.934Z,8.40
2022-09-21T18:53:40.502Z,8.54
2022-09-21T18:56:11.862Z,7.78
2022-09-21T18:58:39.504Z,7.92
2022-09-21T19:01:06.800Z,7.88
2022-09-21T19:03:33.936Z,7.89
2022-09-21T19:06:00.514Z,8.15
2022-09-21T19:08:26.985Z,8.11
2022-09-21T19:11:38.443Z,7.97
2022-09-21T19:14:20.575Z,7.97
2022-09-21T19:17:00.214Z,7.91
2022-09-21T19:19:48.703Z,7.91
2022-09-21T19:22:21.084Z,7.39
2022-09-21T19:24:58.433Z,7.42
2022-09-21T19:27:33.041Z,7.34
2022-09-21T19:30:06.341Z,7.58
2022-09-21T19:32:38.946Z,8.06
2022-09-21T19:35:30.528Z,8.11
2022-09-21T19:37:58.499Z,7.57
2022-09-21T19:40:32.577Z,7.74
2022-09-21T19:43:05.000Z,8.22
2022-09-21T19:45:55.835Z,8.22
2022-09-21T19:48:23.061Z,7.75
2022-09-21T19:50:54.830Z,7.69
2022-09-21T19:53:40.490Z,6.40
2022-09-21T19:56:44.154Z,7.82
2022-09-21T19:59:29.274Z,7.69
2022-09-21T20:01:57.944Z,6.86
2022-09-21T20:04:47.204Z,7.45
2022-09-21T20:07:58.160Z,8.16
2022-09-21T20:10:42.543Z,8.36
2022-09-21T20:13:14.923Z,8.35
2022-09-21T20:15:48.282Z,8.21
2022-09-21T20:18:48.929Z,8.32
2022-09-21T20:21:18.883Z,7.84
2022-09-21T20:23:50.072Z,8.22
2022-09-21T20:26:23.940Z,8.20
2022-09-21T20:28:54.285Z,7.60
2022-09-21T20:31:25.106Z,7.71
2022-09-21T20:33:53.763Z,7.77
2022-09-21T20:36:20.366Z,7.81
2022-09-21T20:38:46.975Z,7.32
2022-09-21T20:41:15.888Z,7.35
2022-09-21T20:43:42.550Z,7.37
2022-09-21T20:46:10.126Z,7.15
2022-09-21T20:48:37.637Z,6.85
2022-09-21T20:51:07.082Z,6.91
2022-09-21T20:53:34.153Z,7.58
2022-09-21T20:56:03.641Z,6.78
2022-09-21T20:58:30.599Z,7.19
2022-09-21T21:01:03.129Z,7.17
2022-09-21T21:03:29.756Z,7.51
2022-09-21T21:06:08.010Z,7.43
2022-09-21T21:08:34.559Z,6.21
2022-09-21T21:11:01.124Z,7.84
2022-09-21T21:13:31.057Z,7.56
2022-09-21T21:15:57.649Z,7.43
2022-09-21T21:18:24.289Z,7.66
2022-09-21T21:20:52.347Z,7.00
2022-09-21T21:23:21.070Z,7.75
2022-09-21T21:25:48.009Z,7.88
2022-09-21T21:28:14.717Z,7.57
2022-09-21T21:30:41.306Z,6.46
2022-09-21T21:33:07.863Z,7.58
2022-09-21T21:35:37.669Z,7.62
2022-09-21T21:38:04.289Z,6.91
2022-09-21T21:40:30.960Z,7.64
2022-09-21T21:42:57.616Z,7.48
2022-09-21T21:45:24.256Z,7.62
2022-09-21T21:47:50.951Z,7.58
2022-09-21T21:50:17.543Z,7.95
2022-09-21T21:52:45.238Z,7.65
2022-09-21T21:55:11.943Z,7.72
2022-09-21T21:57:38.535Z,7.95
2022-09-21T22:00:06.164Z,7.16
2022-09-21T22:02:33.005Z,7.87
2022-09-21T22:04:59.693Z,7.42
2022-09-21T22:07:26.279Z,7.84
2022-09-21T22:09:55.598Z,7.55
2022-09-21T22:12:22.192Z,7.48
2022-09-21T22:14:49.501Z,8.04
2022-09-21T22:17:16.122Z,7.83
2022-09-21T22:19:42.999Z,7.02
2022-09-21T22:22:09.565Z,7.62
2022-09-21T22:24:36.222Z,7.75
2022-09-21T22:27:02.856Z,7.85
2022-09-21T22:29:29.434Z,7.56
2022-09-21T22:31:57.154Z,7.55
2022-09-21T22:34:23.789Z,7.67
2022-09-21T22:36:50.745Z,7.77
2022-09-21T22:39:17.309Z,7.87
2022-09-21T22:41:43.880Z,7.89
2022-09-21T22:44:10.849Z,7.39
2022-09-21T22:46:37.642Z,7.48
2022-09-21T22:49:04.377Z,8.09
2022-09-21T22:51:31.043Z,7.63
2022-09-21T22:53:57.962Z,6.80
2022-09-21T22:56:29.324Z,7.66
2022-09-21T22:58:58.012Z,7.65
2022-09-21T23:01:25.840Z,8.12
2022-09-21T23:03:57.513Z,8.14
2022-09-21T23:06:26.748Z,7.94
2022-09-21T23:08:54.959Z,7.77
2022-09-21T23:11:28.364Z,7.74
2022-09-21T23:13:55.473Z,7.32
2022-09-21T23:16:22.684Z,8.01
2022-09-21T23:18:49.552Z,7.85
2022-09-21T23:21:18.511Z,7.90
2022-09-21T23:23:45.193Z,7.85
2022-09-21T23:26:16.608Z,7.59
2022-09-21T23:28:44.814Z,7.47
2022-09-21T23:31:13.161Z,7.60
2022-09-21T23:33:44.903Z,8.01
2022-09-21T23:36:12.737Z,6.74
2022-09-21T23:38:39.965Z,8.02
2022-09-21T23:41:11.450Z,7.96
2022-09-21T23:43:38.858Z,7.78
2022-09-21T23:46:05.768Z,8.08
2022-09-21T23:48:32.344Z,7.40
2022-09-21T23:50:59.222Z,8.21
2022-09-21T23:53:26.415Z,7.56
2022-09-21T23:55:53.127Z,8.22
2022-09-21T23:58:19.948Z,7.65
